sensor_id;sensor_type;location;lat;lon;timestamp;P1;durP1;ratioP1;P2;durP2;ratioP2
19940;SDS011;10132;50.864;5.176;2024-03-25T00:00:17;1999.90;;;999.90;;
19940;SDS011;10132;50.864;5.176;2024-03-25T00:02:21;1999.90;;;999.90;;
19940;SDS011;10132;50.864;5.176;2024-03-25T00:04:22;1999.90;;;999.90;;
19940;SDS011;10132;50.864;5.176;2024-03-25T00:06:23;1999.90;;;999.90;;
19940;SDS011;10132;50.864;5.176;2024-03-25T00:08:26;1999.90;;;999.90;;
19940;SDS011;10132;50.864;5.176;2024-03-25T00:10:28;1999.90;;;999.90;;
19940;SDS011;10132;50.864;5.176;2024-03-25T00:12:29;1999.90;;;999.90;;
19940;SDS011;10132;50.864;5.176;2024-03-25T00:14:30;1999.90;;;999.90;;
19940;SDS011;10132;50.864;5.176;2024-03-25T00:16:32;1999.90;;;999.90;;
19940;SDS011;10132;50.864;5.176;2024-03-25T00:18:33;1999.90;;;999.90;;
19940;SDS011;10132;50.864;5.176;2024-03-25T00:20:35;1999.90;;;999.90;;
19940;SDS011;10132;50.864;5.176;2024-03-25T00:22:36;1999.90;;;999.90;;
19940;SDS011;10132;50.864;5.176;2024-03-25T00:24:39;1999.90;;;999.90;;
19940;SDS011;10132;50.864;5.176;2024-03-25T00:26:40;1999.90;;;999.90;;
19940;SDS011;10132;50.864;5.176;2024-03-25T00:28:42;1999.90;;;999.90;;
19940;SDS011;10132;50.864;5.176;2024-03-25T00:30:43;1999.90;;;999.90;;
19940;SDS011;10132;50.864;5.176;2024-03-25T00:32:45;1999.90;;;999.90;;
19940;SDS011;10132;50.864;5.176;2024-03-25T00:34:46;1999.90;;;999.90;;
19940;SDS011;10132;50.864;5.176;2024-03-25T00:36:48;1999.90;;;999.90;;
19940;SDS011;10132;50.864;5.176;2024-03-25T00:38:49;1999.90;;;999.90;;
19940;SDS011;10132;50.864;5.176;2024-03-25T00:40:52;1999.90;;;999.90;;
19940;SDS011;10132;50.864;5.176;2024-03-25T00:42:53;1999.90;;;999.90;;
19940;SDS011;10132;50.864;5.176;2024-03-25T00:44:55;1999.90;;;999.90;;
19940;SDS011;10132;50.864;5.176;2024-03-25T00:46:56;1999.90;;;999.90;;
19940;SDS011;10132;50.864;5.176;2024-03-25T00:48:58;1999.90;;;999.90;;
19940;SDS011;10132;50.864;5.176;2024-03-25T00:50:59;1999.90;;;999.90;;
19940;SDS011;10132;50.864;5.176;2024-03-25T00:53:01;1999.90;;;999.90;;
19940;SDS011;10132;50.864;5.176;2024-03-25T00:55:02;1999.90;;;999.90;;
19940;SDS011;10132;50.864;5.176;2024-03-25T00:57:06;1999.90;;;999.90;;
19940;SDS011;10132;50.864;5.176;2024-03-25T00:59:08;1999.90;;;999.90;;
19940;SDS011;10132;50.864;5.176;2024-03-25T01:01:09;1999.90;;;999.90;;
19940;SDS011;10132;50.864;5.176;2024-03-25T01:03:11;1999.90;;;999.90;;
19940;SDS011;10132;50.864;5.176;2024-03-25T01:05:13;1999.90;;;999.90;;
19940;SDS011;10132;50.864;5.176;2024-03-25T01:07:14;1999.90;;;999.90;;
19940;SDS011;10132;50.864;5.176;2024-03-25T01:09:16;1999.90;;;999.90;;
19940;SDS011;10132;50.864;5.176;2024-03-25T01:11:18;1999.90;;;999.90;;
19940;SDS011;10132;50.864;5.176;2024-03-25T01:13:23;1999.90;;;999.90;;
19940;SDS011;10132;50.864;5.176;2024-03-25T01:15:23;1999.90;;;999.90;;
19940;SDS011;10132;50.864;5.176;2024-03-25T01:17:25;1999.90;;;999.90;;
19940;SDS011;10132;50.864;5.176;2024-03-25T01:19:26;1999.90;;;999.90;;
19940;SDS011;10132;50.864;5.176;2024-03-25T01:21:28;1999.90;;;999.90;;
19940;SDS011;10132;50.864;5.176;2024-03-25T01:23:30;1999.90;;;999.90;;
19940;SDS011;10132;50.864;5.176;2024-03-25T01:25:32;1999.90;;;999.90;;
19940;SDS011;10132;50.864;5.176;2024-03-25T01:27:33;1999.90;;;999.90;;
19940;SDS011;10132;50.864;5.176;2024-03-25T01:29:36;1999.90;;;999.90;;
19940;SDS011;10132;50.864;5.176;2024-03-25T01:31:37;1999.90;;;999.90;;
19940;SDS011;10132;50.864;5.176;2024-03-25T01:33:39;1999.90;;;999.90;;
19940;SDS011;10132;50.864;5.176;2024-03-25T01:35:40;1999.90;;;999.90;;
19940;SDS011;10132;50.864;5.176;2024-03-25T01:37:42;1999.90;;;999.90;;
19940;SDS011;10132;50.864;5.176;2024-03-25T01:39:43;1999.90;;;999.90;;
19940;SDS011;10132;50.864;5.176;2024-03-25T01:41:45;1999.90;;;999.90;;
19940;SDS011;10132;50.864;5.176;2024-03-25T01:43:46;1999.90;;;999.90;;
19940;SDS011;10132;50.864;5.176;2024-03-25T01:45:49;1999.90;;;999.90;;
19940;SDS011;10132;50.864;5.176;2024-03-25T01:47:53;1999.90;;;999.90;;
19940;SDS011;10132;50.864;5.176;2024-03-25T01:49:57;1999.90;;;999.90;;
19940;SDS011;10132;50.864;5.176;2024-03-25T01:51:58;1999.90;;;999.90;;
19940;SDS011;10132;50.864;5.176;2024-03-25T01:54:00;1999.90;;;999.90;;
19940;SDS011;10132;50.864;5.176;2024-03-25T01:56:03;1999.90;;;999.90;;
19940;SDS011;10132;50.864;5.176;2024-03-25T01:58:06;1999.90;;;999.90;;
19940;SDS011;10132;50.864;5.176;2024-03-25T02:00:07;1999.90;;;999.90;;
19940;SDS011;10132;50.864;5.176;2024-03-25T02:02:12;1999.90;;;999.90;;
19940;SDS011;10132;50.864;5.176;2024-03-25T02:04:13;1999.90;;;999.90;;
19940;SDS011;10132;50.864;5.176;2024-03-25T02:06:16;1999.90;;;999.90;;
19940;SDS011;10132;50.864;5.176;2024-03-25T02:08:17;1999.90;;;999.90;;
19940;SDS011;10132;50.864;5.176;2024-03-25T02:10:21;1999.90;;;999.90;;
19940;SDS011;10132;50.864;5.176;2024-03-25T02:12:22;1999.90;;;999.90;;
19940;SDS011;10132;50.864;5.176;2024-03-25T02:14:24;1999.90;;;999.90;;
19940;SDS011;10132;50.864;5.176;2024-03-25T02:16:26;1999.90;;;999.90;;
19940;SDS011;10132;50.864;5.176;2024-03-25T02:18:29;1999.90;;;999.90;;
19940;SDS011;10132;50.864;5.176;2024-03-25T02:20:31;1999.90;;;999.90;;
19940;SDS011;10132;50.864;5.176;2024-03-25T02:22:33;1999.90;;;999.90;;
19940;SDS011;10132;50.864;5.176;2024-03-25T02:24:35;1999.90;;;999.90;;
19940;SDS011;10132;50.864;5.176;2024-03-25T02:26:40;1999.90;;;999.90;;
19940;SDS011;10132;50.864;5.176;2024-03-25T02:28:41;1999.90;;;999.90;;
19940;SDS011;10132;50.864;5.176;2024-03-25T02:30:42;1999.90;;;999.90;;
19940;SDS011;10132;50.864;5.176;2024-03-25T02:32:44;1999.90;;;999.90;;
19940;SDS011;10132;50.864;5.176;2024-03-25T02:34:46;1999.90;;;999.90;;
19940;SDS011;10132;50.864;5.176;2024-03-25T02:36:51;1999.90;;;999.90;;
19940;SDS011;10132;50.864;5.176;2024-03-25T02:38:54;1999.90;;;999.90;;
19940;SDS011;10132;50.864;5.176;2024-03-25T02:40:55;1999.90;;;999.90;;
19940;SDS011;10132;50.864;5.176;2024-03-25T02:42:59;1999.90;;;999.90;;
19940;SDS011;10132;50.864;5.176;2024-03-25T02:45:00;1999.90;;;999.90;;
19940;SDS011;10132;50.864;5.176;2024-03-25T02:47:02;1999.90;;;999.90;;
19940;SDS011;10132;50.864;5.176;2024-03-25T02:49:04;1999.90;;;999.90;;
19940;SDS011;10132;50.864;5.176;2024-03-25T02:51:06;1999.90;;;999.90;;
19940;SDS011;10132;50.864;5.176;2024-03-25T02:53:06;1999.90;;;999.90;;
19940;SDS011;10132;50.864;5.176;2024-03-25T02:55:08;1999.90;;;999.90;;
19940;SDS011;10132;50.864;5.176;2024-03-25T02:57:09;1999.90;;;999.90;;
19940;SDS011;10132;50.864;5.176;2024-03-25T02:59:12;1999.90;;;999.90;;
19940;SDS011;10132;50.864;5.176;2024-03-25T03:01:15;1999.90;;;999.90;;
19940;SDS011;10132;50.864;5.176;2024-03-25T03:03:17;1999.90;;;999.90;;
19940;SDS011;10132;50.864;5.176;2024-03-25T03:05:19;1999.90;;;999.90;;
19940;SDS011;10132;50.864;5.176;2024-03-25T03:07:20;1999.90;;;999.90;;
19940;SDS011;10132;50.864;5.176;2024-03-25T03:09:21;1999.90;;;999.90;;
19940;SDS011;10132;50.864;5.176;2024-03-25T03:11:22;1999.90;;;999.90;;
19940;SDS011;10132;50.864;5.176;2024-03-25T03:13:24;1999.90;;;999.90;;
19940;SDS011;10132;50.864;5.176;2024-03-25T03:15:27;1999.90;;;999.90;;
19940;SDS011;10132;50.864;5.176;2024-03-25T03:17:29;1999.90;;;999.90;;
19940;SDS011;10132;50.864;5.176;2024-03-25T03:19:30;1999.90;;;999.90;;
19940;SDS011;10132;50.864;5.176;2024-03-25T03:21:32;1999.90;;;999.90;;
19940;SDS011;10132;50.864;5.176;2024-03-25T03:23:33;1999.90;;;999.90;;
19940;SDS011;10132;50.864;5.176;2024-03-25T03:25:35;1999.90;;;999.90;;
19940;SDS011;10132;50.864;5.176;2024-03-25T03:27:36;1999.90;;;999.90;;
19940;SDS011;10132;50.864;5.176;2024-03-25T03:29:38;1999.90;;;999.90;;
19940;SDS011;10132;50.864;5.176;2024-03-25T03:31:40;1999.90;;;999.90;;
19940;SDS011;10132;50.864;5.176;2024-03-25T03:33:42;1999.90;;;999.90;;
19940;SDS011;10132;50.864;5.176;2024-03-25T03:35:43;1999.90;;;999.90;;
19940;SDS011;10132;50.864;5.176;2024-03-25T03:37:45;1999.90;;;999.90;;
19940;SDS011;10132;50.864;5.176;2024-03-25T03:39:46;1999.90;;;999.90;;
19940;SDS011;10132;50.864;5.176;2024-03-25T03:41:48;1999.90;;;999.90;;
19940;SDS011;10132;50.864;5.176;2024-03-25T03:43:49;1999.90;;;999.90;;
19940;SDS011;10132;50.864;5.176;2024-03-25T03:45:51;1999.90;;;999.90;;
19940;SDS011;10132;50.864;5.176;2024-03-25T03:47:54;1999.90;;;999.90;;
19940;SDS011;10132;50.864;5.176;2024-03-25T03:49:54;1999.90;;;999.90;;
19940;SDS011;10132;50.864;5.176;2024-03-25T03:51:57;1999.90;;;999.90;;
19940;SDS011;10132;50.864;5.176;2024-03-25T03:53:58;1999.90;;;999.90;;
19940;SDS011;10132;50.864;5.176;2024-03-25T03:56:00;1999.90;;;999.90;;
19940;SDS011;10132;50.864;5.176;2024-03-25T03:58:02;1999.90;;;999.90;;
19940;SDS011;10132;50.864;5.176;2024-03-25T04:00:05;1999.90;;;999.90;;
19940;SDS011;10132;50.864;5.176;2024-03-25T04:02:08;1999.90;;;999.90;;
19940;SDS011;10132;50.864;5.176;2024-03-25T04:04:11;1999.90;;;999.90;;
19940;SDS011;10132;50.864;5.176;2024-03-25T04:06:12;1999.90;;;999.90;;
19940;SDS011;10132;50.864;5.176;2024-03-25T04:08:15;1999.90;;;999.90;;
19940;SDS011;10132;50.864;5.176;2024-03-25T04:10:16;1999.90;;;999.90;;
19940;SDS011;10132;50.864;5.176;2024-03-25T04:12:17;1999.90;;;999.90;;
19940;SDS011;10132;50.864;5.176;2024-03-25T04:14:19;1999.90;;;999.90;;
19940;SDS011;10132;50.864;5.176;2024-03-25T04:16:20;1999.90;;;999.90;;
19940;SDS011;10132;50.864;5.176;2024-03-25T04:18:23;1999.90;;;999.90;;
19940;SDS011;10132;50.864;5.176;2024-03-25T04:20:25;1999.90;;;999.90;;
19940;SDS011;10132;50.864;5.176;2024-03-25T04:22:28;1999.90;;;999.90;;
19940;SDS011;10132;50.864;5.176;2024-03-25T04:24:29;1999.90;;;999.90;;
19940;SDS011;10132;50.864;5.176;2024-03-25T04:26:30;1999.90;;;999.90;;
19940;SDS011;10132;50.864;5.176;2024-03-25T04:28:31;1999.90;;;999.90;;
19940;SDS011;10132;50.864;5.176;2024-03-25T04:30:33;1999.90;;;999.90;;
19940;SDS011;10132;50.864;5.176;2024-03-25T04:32:34;1999.90;;;999.90;;
19940;SDS011;10132;50.864;5.176;2024-03-25T04:34:37;1999.90;;;999.90;;
19940;SDS011;10132;50.864;5.176;2024-03-25T04:36:39;1999.90;;;999.90;;
19940;SDS011;10132;50.864;5.176;2024-03-25T04:38:41;1999.90;;;999.90;;
19940;SDS011;10132;50.864;5.176;2024-03-25T04:40:42;1999.90;;;999.90;;
19940;SDS011;10132;50.864;5.176;2024-03-25T04:42:43;1999.90;;;999.90;;
19940;SDS011;10132;50.864;5.176;2024-03-25T04:44:45;1999.90;;;999.90;;
19940;SDS011;10132;50.864;5.176;2024-03-25T04:46:46;1999.90;;;999.90;;
19940;SDS011;10132;50.864;5.176;2024-03-25T04:48:47;1999.90;;;999.90;;
19940;SDS011;10132;50.864;5.176;2024-03-25T04:50:48;1999.90;;;999.90;;
19940;SDS011;10132;50.864;5.176;2024-03-25T04:52:50;1999.90;;;999.90;;
19940;SDS011;10132;50.864;5.176;2024-03-25T04:54:51;1999.90;;;999.90;;
19940;SDS011;10132;50.864;5.176;2024-03-25T04:56:52;1999.90;;;999.90;;
19940;SDS011;10132;50.864;5.176;2024-03-25T04:58:53;1999.90;;;999.90;;
19940;SDS011;10132;50.864;5.176;2024-03-25T05:00:54;1999.90;;;999.90;;
19940;SDS011;10132;50.864;5.176;2024-03-25T05:02:55;1999.90;;;999.90;;
19940;SDS011;10132;50.864;5.176;2024-03-25T05:04:56;1999.90;;;999.90;;
19940;SDS011;10132;50.864;5.176;2024-03-25T05:06:57;1999.90;;;999.90;;
19940;SDS011;10132;50.864;5.176;2024-03-25T05:08:59;1999.90;;;999.90;;
19940;SDS011;10132;50.864;5.176;2024-03-25T05:11:00;1999.90;;;999.90;;
19940;SDS011;10132;50.864;5.176;2024-03-25T05:13:01;1999.90;;;999.90;;
19940;SDS011;10132;50.864;5.176;2024-03-25T05:15:03;1999.90;;;999.90;;
19940;SDS011;10132;50.864;5.176;2024-03-25T05:17:04;1999.90;;;999.90;;
19940;SDS011;10132;50.864;5.176;2024-03-25T05:19:05;1999.90;;;999.90;;
19940;SDS011;10132;50.864;5.176;2024-03-25T05:21:06;1999.90;;;999.90;;
19940;SDS011;10132;50.864;5.176;2024-03-25T05:23:07;1999.90;;;999.90;;
19940;SDS011;10132;50.864;5.176;2024-03-25T05:25:10;1999.90;;;999.90;;
19940;SDS011;10132;50.864;5.176;2024-03-25T05:27:11;1999.90;;;999.90;;
19940;SDS011;10132;50.864;5.176;2024-03-25T05:29:12;1999.90;;;999.90;;
19940;SDS011;10132;50.864;5.176;2024-03-25T05:31:13;1999.90;;;999.90;;
19940;SDS011;10132;50.864;5.176;2024-03-25T05:33:14;1999.90;;;999.90;;
19940;SDS011;10132;50.864;5.176;2024-03-25T05:35:15;1999.90;;;999.90;;
19940;SDS011;10132;50.864;5.176;2024-03-25T05:37:16;1999.90;;;999.90;;
19940;SDS011;10132;50.864;5.176;2024-03-25T05:39:17;1999.90;;;999.90;;
19940;SDS011;10132;50.864;5.176;2024-03-25T05:41:19;1999.90;;;999.90;;
19940;SDS011;10132;50.864;5.176;2024-03-25T05:43:20;1999.90;;;999.90;;
19940;SDS011;10132;50.864;5.176;2024-03-25T05:45:21;1999.90;;;999.90;;
19940;SDS011;10132;50.864;5.176;2024-03-25T05:47:22;1999.90;;;999.90;;
19940;SDS011;10132;50.864;5.176;2024-03-25T05:49:23;1999.90;;;999.90;;
19940;SDS011;10132;50.864;5.176;2024-03-25T05:51:24;1999.90;;;999.90;;
19940;SDS011;10132;50.864;5.176;2024-03-25T05:53:26;1999.90;;;999.90;;
19940;SDS011;10132;50.864;5.176;2024-03-25T05:55:27;1999.90;;;999.90;;
19940;SDS011;10132;50.864;5.176;2024-03-25T05:57:29;1999.90;;;999.90;;
19940;SDS011;10132;50.864;5.176;2024-03-25T05:59:30;1999.90;;;999.90;;
19940;SDS011;10132;50.864;5.176;2024-03-25T06:01:31;1999.90;;;999.90;;
19940;SDS011;10132;50.864;5.176;2024-03-25T06:03:32;1999.90;;;999.90;;
19940;SDS011;10132;50.864;5.176;2024-03-25T06:05:33;1999.90;;;999.90;;
19940;SDS011;10132;50.864;5.176;2024-03-25T06:07:34;1999.90;;;999.90;;
19940;SDS011;10132;50.864;5.176;2024-03-25T06:09:35;1999.90;;;999.90;;
19940;SDS011;10132;50.864;5.176;2024-03-25T06:11:36;1999.90;;;999.90;;
19940;SDS011;10132;50.864;5.176;2024-03-25T06:13:38;1999.90;;;999.90;;
19940;SDS011;10132;50.864;5.176;2024-03-25T06:15:39;1999.90;;;999.90;;
19940;SDS011;10132;50.864;5.176;2024-03-25T06:17:40;1999.90;;;999.90;;
19940;SDS011;10132;50.864;5.176;2024-03-25T06:19:41;1999.90;;;999.90;;
19940;SDS011;10132;50.864;5.176;2024-03-25T06:21:42;1999.90;;;999.90;;
19940;SDS011;10132;50.864;5.176;2024-03-25T06:23:43;1999.90;;;999.90;;
19940;SDS011;10132;50.864;5.176;2024-03-25T06:25:44;1999.90;;;999.90;;
19940;SDS011;10132;50.864;5.176;2024-03-25T06:27:45;1999.90;;;999.90;;
19940;SDS011;10132;50.864;5.176;2024-03-25T06:29:48;1999.90;;;999.90;;
19940;SDS011;10132;50.864;5.176;2024-03-25T06:31:49;1999.90;;;999.90;;
19940;SDS011;10132;50.864;5.176;2024-03-25T06:34:08;1999.90;;;999.90;;
19940;SDS011;10132;50.864;5.176;2024-03-25T06:36:14;1999.90;;;999.90;;
19940;SDS011;10132;50.864;5.176;2024-03-25T06:38:16;1999.90;;;999.90;;
19940;SDS011;10132;50.864;5.176;2024-03-25T06:40:16;1999.90;;;999.90;;
19940;SDS011;10132;50.864;5.176;2024-03-25T06:42:17;1999.90;;;999.90;;
19940;SDS011;10132;50.864;5.176;2024-03-25T06:44:18;1999.90;;;999.90;;
19940;SDS011;10132;50.864;5.176;2024-03-25T06:46:21;1999.90;;;999.90;;
19940;SDS011;10132;50.864;5.176;2024-03-25T06:48:22;1999.90;;;999.90;;
19940;SDS011;10132;50.864;5.176;2024-03-25T06:50:23;1999.90;;;999.90;;
19940;SDS011;10132;50.864;5.176;2024-03-25T06:52:24;1999.90;;;999.90;;
19940;SDS011;10132;50.864;5.176;2024-03-25T06:54:25;1999.90;;;999.90;;
19940;SDS011;10132;50.864;5.176;2024-03-25T06:56:26;1999.90;;;999.90;;
19940;SDS011;10132;50.864;5.176;2024-03-25T06:58:27;1999.90;;;999.90;;
19940;SDS011;10132;50.864;5.176;2024-03-25T07:00:28;1999.90;;;999.90;;
19940;SDS011;10132;50.864;5.176;2024-03-25T07:02:31;1999.90;;;999.90;;
19940;SDS011;10132;50.864;5.176;2024-03-25T07:04:32;1999.90;;;999.90;;
19940;SDS011;10132;50.864;5.176;2024-03-25T07:06:33;1999.90;;;999.90;;
19940;SDS011;10132;50.864;5.176;2024-03-25T07:08:34;1999.90;;;999.90;;
19940;SDS011;10132;50.864;5.176;2024-03-25T07:10:35;1999.90;;;999.90;;
19940;SDS011;10132;50.864;5.176;2024-03-25T07:12:36;1999.90;;;999.90;;
19940;SDS011;10132;50.864;5.176;2024-03-25T07:14:37;1999.90;;;999.90;;
19940;SDS011;10132;50.864;5.176;2024-03-25T07:16:38;1999.90;;;999.90;;
19940;SDS011;10132;50.864;5.176;2024-03-25T07:18:40;1999.90;;;999.90;;
19940;SDS011;10132;50.864;5.176;2024-03-25T07:20:41;1999.90;;;999.90;;
19940;SDS011;10132;50.864;5.176;2024-03-25T07:22:43;1999.90;;;999.90;;
19940;SDS011;10132;50.864;5.176;2024-03-25T07:24:44;1999.90;;;999.90;;
19940;SDS011;10132;50.864;5.176;2024-03-25T07:26:45;1999.90;;;999.90;;
19940;SDS011;10132;50.864;5.176;2024-03-25T07:28:46;1999.90;;;999.90;;
19940;SDS011;10132;50.864;5.176;2024-03-25T07:30:49;1999.90;;;999.90;;
19940;SDS011;10132;50.864;5.176;2024-03-25T07:32:50;1999.90;;;999.90;;
19940;SDS011;10132;50.864;5.176;2024-03-25T07:34:52;1999.90;;;999.90;;
19940;SDS011;10132;50.864;5.176;2024-03-25T07:36:53;1999.90;;;999.90;;
19940;SDS011;10132;50.864;5.176;2024-03-25T07:38:54;1999.90;;;999.90;;
19940;SDS011;10132;50.864;5.176;2024-03-25T07:40:55;1999.90;;;999.90;;
19940;SDS011;10132;50.864;5.176;2024-03-25T07:42:56;1999.90;;;999.90;;
19940;SDS011;10132;50.864;5.176;2024-03-25T07:44:57;1999.90;;;999.90;;
19940;SDS011;10132;50.864;5.176;2024-03-25T07:46:58;1999.90;;;999.90;;
19940;SDS011;10132;50.864;5.176;2024-03-25T07:48:59;1999.90;;;999.90;;
19940;SDS011;10132;50.864;5.176;2024-03-25T07:51:02;1999.90;;;999.90;;
19940;SDS011;10132;50.864;5.176;2024-03-25T07:53:03;1999.90;;;999.90;;
19940;SDS011;10132;50.864;5.176;2024-03-25T07:55:04;1999.90;;;999.90;;
19940;SDS011;10132;50.864;5.176;2024-03-25T07:57:05;1999.90;;;999.90;;
19940;SDS011;10132;50.864;5.176;2024-03-25T07:59:06;1999.90;;;999.90;;
19940;SDS011;10132;50.864;5.176;2024-03-25T08:01:07;1999.90;;;999.90;;
19940;SDS011;10132;50.864;5.176;2024-03-25T08:03:08;1999.90;;;999.90;;
19940;SDS011;10132;50.864;5.176;2024-03-25T08:05:10;1999.90;;;999.90;;
19940;SDS011;10132;50.864;5.176;2024-03-25T08:07:12;1999.90;;;999.90;;
19940;SDS011;10132;50.864;5.176;2024-03-25T08:09:13;1999.90;;;999.90;;
19940;SDS011;10132;50.864;5.176;2024-03-25T08:11:14;1999.90;;;999.90;;
19940;SDS011;10132;50.864;5.176;2024-03-25T08:13:15;1999.90;;;999.90;;
19940;SDS011;10132;50.864;5.176;2024-03-25T08:15:16;1999.90;;;999.90;;
19940;SDS011;10132;50.864;5.176;2024-03-25T08:17:17;1999.90;;;999.90;;
19940;SDS011;10132;50.864;5.176;2024-03-25T08:19:18;1999.90;;;999.90;;
19940;SDS011;10132;50.864;5.176;2024-03-25T08:21:19;1999.90;;;999.90;;
19940;SDS011;10132;50.864;5.176;2024-03-25T08:23:22;1999.90;;;999.90;;
19940;SDS011;10132;50.864;5.176;2024-03-25T08:25:23;1999.90;;;999.90;;
19940;SDS011;10132;50.864;5.176;2024-03-25T08:27:24;1999.90;;;999.90;;
19940;SDS011;10132;50.864;5.176;2024-03-25T08:29:25;1999.90;;;999.90;;
19940;SDS011;10132;50.864;5.176;2024-03-25T08:31:26;1999.90;;;999.90;;
19940;SDS011;10132;50.864;5.176;2024-03-25T08:33:27;1999.90;;;999.90;;
19940;SDS011;10132;50.864;5.176;2024-03-25T08:35:28;1999.90;;;999.90;;
19940;SDS011;10132;50.864;5.176;2024-03-25T08:37:29;1999.90;;;999.90;;
19940;SDS011;10132;50.864;5.176;2024-03-25T08:39:32;1999.90;;;999.90;;
19940;SDS011;10132;50.864;5.176;2024-03-25T08:41:33;1999.90;;;999.90;;
19940;SDS011;10132;50.864;5.176;2024-03-25T08:43:33;1999.90;;;999.90;;
19940;SDS011;10132;50.864;5.176;2024-03-25T08:45:35;1999.90;;;999.90;;
19940;SDS011;10132;50.864;5.176;2024-03-25T08:47:35;1999.90;;;999.90;;
19940;SDS011;10132;50.864;5.176;2024-03-25T08:49:37;1999.90;;;999.90;;
19940;SDS011;10132;50.864;5.176;2024-03-25T08:51:38;1999.90;;;999.90;;
19940;SDS011;10132;50.864;5.176;2024-03-25T08:53:38;1999.90;;;999.90;;
19940;SDS011;10132;50.864;5.176;2024-03-25T08:55:44;1999.90;;;999.90;;
19940;SDS011;10132;50.864;5.176;2024-03-25T08:57:45;1999.90;;;999.90;;
19940;SDS011;10132;50.864;5.176;2024-03-25T08:59:46;1999.90;;;999.90;;
19940;SDS011;10132;50.864;5.176;2024-03-25T09:01:47;1999.90;;;999.90;;
19940;SDS011;10132;50.864;5.176;2024-03-25T09:03:48;1999.90;;;999.90;;
19940;SDS011;10132;50.864;5.176;2024-03-25T09:05:49;1999.90;;;999.90;;
19940;SDS011;10132;50.864;5.176;2024-03-25T09:07:51;1555.17;;;871.97;;
19940;SDS011;10132;50.864;5.176;2024-03-25T09:09:52;608.60;;;565.47;;
19940;SDS011;10132;50.864;5.176;2024-03-25T09:12:13;577.97;;;540.37;;
19940;SDS011;10132;50.864;5.176;2024-03-25T09:14:14;556.37;;;518.67;;
19940;SDS011;10132;50.864;5.176;2024-03-25T09:16:15;399.57;;;375.07;;
19940;SDS011;10132;50.864;5.176;2024-03-25T09:18:16;1000.97;;;644.27;;
19940;SDS011;10132;50.864;5.176;2024-03-25T09:20:17;493.60;;;462.20;;
19940;SDS011;10132;50.864;5.176;2024-03-25T09:22:18;476.97;;;445.47;;
19940;SDS011;10132;50.864;5.176;2024-03-25T09:24:19;490.20;;;456.87;;
19940;SDS011;10132;50.864;5.176;2024-03-25T09:26:20;441.10;;;413.57;;
19940;SDS011;10132;50.864;5.176;2024-03-25T09:28:22;427.00;;;399.03;;
19940;SDS011;10132;50.864;5.176;2024-03-25T09:30:23;574.07;;;531.07;;
19940;SDS011;10132;50.864;5.176;2024-03-25T09:32:24;549.07;;;513.03;;
19940;SDS011;10132;50.864;5.176;2024-03-25T09:34:25;520.87;;;485.50;;
19940;SDS011;10132;50.864;5.176;2024-03-25T09:36:26;448.67;;;419.37;;
19940;SDS011;10132;50.864;5.176;2024-03-25T09:38:27;531.00;;;495.50;;
19940;SDS011;10132;50.864;5.176;2024-03-25T09:40:28;571.07;;;531.33;;
19940;SDS011;10132;50.864;5.176;2024-03-25T09:42:31;634.00;;;589.87;;
19940;SDS011;10132;50.864;5.176;2024-03-25T09:44:36;584.97;;;542.27;;
19940;SDS011;10132;50.864;5.176;2024-03-25T09:46:37;374.37;;;350.10;;
19940;SDS011;10132;50.864;5.176;2024-03-25T09:48:38;425.03;;;397.73;;
19940;SDS011;10132;50.864;5.176;2024-03-25T09:50:41;454.23;;;424.27;;
19940;SDS011;10132;50.864;5.176;2024-03-25T09:52:43;302.33;;;283.80;;
19940;SDS011;10132;50.864;5.176;2024-03-25T09:54:44;408.33;;;382.87;;
19940;SDS011;10132;50.864;5.176;2024-03-25T09:56:45;555.33;;;515.97;;
19940;SDS011;10132;50.864;5.176;2024-03-25T09:58:47;312.37;;;293.47;;
19940;SDS011;10132;50.864;5.176;2024-03-25T10:00:50;336.07;;;317.30;;
19940;SDS011;10132;50.864;5.176;2024-03-25T10:02:51;482.90;;;445.20;;
19940;SDS011;10132;50.864;5.176;2024-03-25T10:04:52;470.07;;;436.53;;
19940;SDS011;10132;50.864;5.176;2024-03-25T10:06:53;381.57;;;356.40;;
19940;SDS011;10132;50.864;5.176;2024-03-25T10:08:54;439.93;;;408.90;;
19940;SDS011;10132;50.864;5.176;2024-03-25T10:10:55;371.00;;;346.23;;
19940;SDS011;10132;50.864;5.176;2024-03-25T10:12:56;285.70;;;269.03;;
19940;SDS011;10132;50.864;5.176;2024-03-25T10:14:58;351.03;;;329.60;;
19940;SDS011;10132;50.864;5.176;2024-03-25T10:17:01;379.73;;;354.07;;
19940;SDS011;10132;50.864;5.176;2024-03-25T10:19:02;427.80;;;399.97;;
19940;SDS011;10132;50.864;5.176;2024-03-25T10:21:03;273.27;;;256.40;;
19940;SDS011;10132;50.864;5.176;2024-03-25T10:23:04;313.27;;;293.07;;
19940;SDS011;10132;50.864;5.176;2024-03-25T10:25:06;320.93;;;302.70;;
19940;SDS011;10132;50.864;5.176;2024-03-25T10:27:09;215.57;;;203.67;;
19940;SDS011;10132;50.864;5.176;2024-03-25T10:29:11;328.00;;;308.20;;
19940;SDS011;10132;50.864;5.176;2024-03-25T10:31:12;238.97;;;225.17;;
19940;SDS011;10132;50.864;5.176;2024-03-25T10:33:19;318.07;;;298.47;;
19940;SDS011;10132;50.864;5.176;2024-03-25T10:35:20;279.60;;;263.93;;
19940;SDS011;10132;50.864;5.176;2024-03-25T10:37:22;239.97;;;225.93;;
19940;SDS011;10132;50.864;5.176;2024-03-25T10:39:26;191.33;;;180.17;;
19940;SDS011;10132;50.864;5.176;2024-03-25T10:41:30;331.00;;;309.67;;
19940;SDS011;10132;50.864;5.176;2024-03-25T10:43:32;354.20;;;331.87;;
19940;SDS011;10132;50.864;5.176;2024-03-25T10:45:37;314.90;;;296.03;;
19940;SDS011;10132;50.864;5.176;2024-03-25T10:47:41;212.33;;;200.90;;
19940;SDS011;10132;50.864;5.176;2024-03-25T10:49:45;77.57;;;73.03;;
19940;SDS011;10132;50.864;5.176;2024-03-25T10:51:49;111.13;;;104.40;;
19940;SDS011;10132;50.864;5.176;2024-03-25T10:53:51;122.50;;;115.77;;
19940;SDS011;10132;50.864;5.176;2024-03-25T10:55:53;90.57;;;85.30;;
19940;SDS011;10132;50.864;5.176;2024-03-25T10:57:55;199.13;;;188.13;;
19940;SDS011;10132;50.864;5.176;2024-03-25T10:59:57;121.33;;;114.87;;
19940;SDS011;10132;50.864;5.176;2024-03-25T11:01:58;190.23;;;179.97;;
19940;SDS011;10132;50.864;5.176;2024-03-25T11:03:59;175.80;;;165.67;;
19940;SDS011;10132;50.864;5.176;2024-03-25T11:06:02;150.63;;;142.57;;
19940;SDS011;10132;50.864;5.176;2024-03-25T11:08:09;109.27;;;103.40;;
19940;SDS011;10132;50.864;5.176;2024-03-25T11:10:11;103.30;;;97.63;;
19940;SDS011;10132;50.864;5.176;2024-03-25T11:12:12;178.07;;;168.47;;
19940;SDS011;10132;50.864;5.176;2024-03-25T11:14:15;179.57;;;169.93;;
19940;SDS011;10132;50.864;5.176;2024-03-25T11:16:26;56.13;;;52.80;;
19940;SDS011;10132;50.864;5.176;2024-03-25T11:18:29;132.10;;;125.03;;
19940;SDS011;10132;50.864;5.176;2024-03-25T11:20:30;79.90;;;74.97;;
19940;SDS011;10132;50.864;5.176;2024-03-25T11:22:32;81.83;;;76.87;;